sensor_id;sensor_type;location;lat;lon;timestamp;temperature;humidity
21244;DHT22;10780;50.942;4.028;2022-08-19T00:01:15;20.00;99.90
21244;DHT22;10780;50.942;4.028;2022-08-19T00:03:41;20.00;99.90
21244;DHT22;10780;50.942;4.028;2022-08-19T00:06:07;20.00;99.90
21244;DHT22;10780;50.942;4.028;2022-08-19T00:08:32;20.00;99.90
21244;DHT22;10780;50.942;4.028;2022-08-19T00:10:58;20.00;99.90
21244;DHT22;10780;50.942;4.028;2022-08-19T00:13:24;19.90;99.90
21244;DHT22;10780;50.942;4.028;2022-08-19T00:15:49;20.00;99.90
21244;DHT22;10780;50.942;4.028;2022-08-19T00:18:15;20.00;99.90
21244;DHT22;10780;50.942;4.028;2022-08-19T00:20:40;20.10;99.90
21244;DHT22;10780;50.942;4.028;2022-08-19T00:23:07;20.10;99.90
21244;DHT22;10780;50.942;4.028;2022-08-19T00:25:32;20.10;99.90
21244;DHT22;10780;50.942;4.028;2022-08-19T00:27:59;20.10;99.90
21244;DHT22;10780;50.942;4.028;2022-08-19T00:30:25;20.10;99.90
21244;DHT22;10780;50.942;4.028;2022-08-19T00:32:53;20.20;99.90
21244;DHT22;10780;50.942;4.028;2022-08-19T00:35:20;20.20;99.90
21244;DHT22;10780;50.942;4.028;2022-08-19T00:37:47;20.10;99.90
21244;DHT22;10780;50.942;4.028;2022-08-19T00:40:14;20.10;99.90
21244;DHT22;10780;50.942;4.028;2022-08-19T00:42:40;20.10;99.90
21244;DHT22;10780;50.942;4.028;2022-08-19T00:45:14;20.10;99.90
21244;DHT22;10780;50.942;4.028;2022-08-19T00:47:40;20.00;99.90
21244;DHT22;10780;50.942;4.028;2022-08-19T00:50:08;19.90;99.90
21244;DHT22;10780;50.942;4.028;2022-08-19T00:52:38;20.00;99.90
21244;DHT22;10780;50.942;4.028;2022-08-19T00:55:07;19.90;99.90
21244;DHT22;10780;50.942;4.028;2022-08-19T00:57:39;20.00;99.90
21244;DHT22;10780;50.942;4.028;2022-08-19T01:00:12;20.00;99.90
21244;DHT22;10780;50.942;4.028;2022-08-19T01:02:40;20.10;99.90
21244;DHT22;10780;50.942;4.028;2022-08-19T01:05:10;20.00;99.90
21244;DHT22;10780;50.942;4.028;2022-08-19T01:07:37;19.90;99.90
21244;DHT22;10780;50.942;4.028;2022-08-19T01:10:09;19.90;99.90
21244;DHT22;10780;50.942;4.028;2022-08-19T01:12:36;19.80;99.90
21244;DHT22;10780;50.942;4.028;2022-08-19T01:15:03;19.70;99.90
21244;DHT22;10780;50.942;4.028;2022-08-19T01:17:29;19.60;99.90
21244;DHT22;10780;50.942;4.028;2022-08-19T01:19:55;19.50;99.90
21244;DHT22;10780;50.942;4.028;2022-08-19T01:24:50;19.50;99.90
21244;DHT22;10780;50.942;4.028;2022-08-19T01:27:17;19.50;99.90
21244;DHT22;10780;50.942;4.028;2022-08-19T01:29:44;19.50;99.90
21244;DHT22;10780;50.942;4.028;2022-08-19T01:32:13;19.60;99.90
21244;DHT22;10780;50.942;4.028;2022-08-19T01:34:39;19.60;99.90
21244;DHT22;10780;50.942;4.028;2022-08-19T01:37:11;19.60;99.90
21244;DHT22;10780;50.942;4.028;2022-08-19T01:39:39;19.50;99.90
21244;DHT22;10780;50.942;4.028;2022-08-19T01:42:06;19.40;99.90
21244;DHT22;10780;50.942;4.028;2022-08-19T01:44:35;19.30;99.90
21244;DHT22;10780;50.942;4.028;2022-08-19T01:47:02;19.30;99.90
21244;DHT22;10780;50.942;4.028;2022-08-19T01:49:29;19.30;99.90
21244;DHT22;10780;50.942;4.028;2022-08-19T01:51:55;19.30;99.90
21244;DHT22;10780;50.942;4.028;2022-08-19T01:54:23;19.30;99.90
21244;DHT22;10780;50.942;4.028;2022-08-19T01:56:50;19.40;99.90
21244;DHT22;10780;50.942;4.028;2022-08-19T01:59:19;19.50;99.90
21244;DHT22;10780;50.942;4.028;2022-08-19T02:01:46;19.40;99.90
21244;DHT22;10780;50.942;4.028;2022-08-19T02:04:11;19.40;99.90
21244;DHT22;10780;50.942;4.028;2022-08-19T02:06:37;19.30;99.90
21244;DHT22;10780;50.942;4.028;2022-08-19T02:09:04;19.20;99.90
21244;DHT22;10780;50.942;4.028;2022-08-19T02:11:33;19.10;99.90
21244;DHT22;10780;50.942;4.028;2022-08-19T02:14:01;19.10;99.90
21244;DHT22;10780;50.942;4.028;2022-08-19T02:16:27;19.20;99.90
21244;DHT22;10780;50.942;4.028;2022-08-19T02:18:53;19.20;99.90
21244;DHT22;10780;50.942;4.028;2022-08-19T02:21:21;19.20;99.90
21244;DHT22;10780;50.942;4.028;2022-08-19T02:23:49;19.10;99.90
21244;DHT22;10780;50.942;4.028;2022-08-19T02:26:15;19.00;99.90
21244;DHT22;10780;50.942;4.028;2022-08-19T02:28:42;18.90;99.90
21244;DHT22;10780;50.942;4.028;2022-08-19T02:31:16;18.80;99.90
21244;DHT22;10780;50.942;4.028;2022-08-19T02:33:43;18.70;99.90
21244;DHT22;10780;50.942;4.028;2022-08-19T02:36:10;18.70;99.90
21244;DHT22;10780;50.942;4.028;2022-08-19T02:38:37;18.70;99.90
21244;DHT22;10780;50.942;4.028;2022-08-19T02:41:09;18.70;99.90
21244;DHT22;10780;50.942;4.028;2022-08-19T02:43:36;18.80;99.90
21244;DHT22;10780;50.942;4.028;2022-08-19T02:46:15;18.80;99.90
21244;DHT22;10780;50.942;4.028;2022-08-19T02:48:43;18.80;99.90
21244;DHT22;10780;50.942;4.028;2022-08-19T02:51:16;18.70;99.90
21244;DHT22;10780;50.942;4.028;2022-08-19T02:53:41;18.60;99.90
21244;DHT22;10780;50.942;4.028;2022-08-19T02:56:07;18.60;99.90
21244;DHT22;10780;50.942;4.028;2022-08-19T02:58:33;18.60;99.90
21244;DHT22;10780;50.942;4.028;2022-08-19T03:00:59;18.60;99.90
21244;DHT22;10780;50.942;4.028;2022-08-19T03:03:24;18.60;99.90
21244;DHT22;10780;50.942;4.028;2022-08-19T03:05:50;18.50;99.90
21244;DHT22;10780;50.942;4.028;2022-08-19T03:08:15;18.50;99.90
21244;DHT22;10780;50.942;4.028;2022-08-19T03:10:46;18.50;99.90
21244;DHT22;10780;50.942;4.028;2022-08-19T03:13:17;18.50;99.90
21244;DHT22;10780;50.942;4.028;2022-08-19T03:15:45;18.40;99.90
21244;DHT22;10780;50.942;4.028;2022-08-19T03:18:12;18.40;99.90
21244;DHT22;10780;50.942;4.028;2022-08-19T03:20:45;18.50;99.90
21244;DHT22;10780;50.942;4.028;2022-08-19T03:23:11;18.40;99.90
21244;DHT22;10780;50.942;4.028;2022-08-19T03:25:42;18.30;99.90
21244;DHT22;10780;50.942;4.028;2022-08-19T03:28:13;18.30;99.90
21244;DHT22;10780;50.942;4.028;2022-08-19T03:30:40;18.30;99.90
21244;DHT22;10780;50.942;4.028;2022-08-19T03:33:08;18.30;99.90
21244;DHT22;10780;50.942;4.028;2022-08-19T03:35:35;18.40;99.90
21244;DHT22;10780;50.942;4.028;2022-08-19T03:38:03;18.30;99.90
21244;DHT22;10780;50.942;4.028;2022-08-19T03:40:28;18.30;99.90
21244;DHT22;10780;50.942;4.028;2022-08-19T03:42:56;18.20;99.90
21244;DHT22;10780;50.942;4.028;2022-08-19T03:45:22;18.20;99.90
21244;DHT22;10780;50.942;4.028;2022-08-19T03:47:48;18.20;99.90
21244;DHT22;10780;50.942;4.028;2022-08-19T03:50:14;18.20;99.90
21244;DHT22;10780;50.942;4.028;2022-08-19T03:52:40;18.10;99.90
21244;DHT22;10780;50.942;4.028;2022-08-19T03:55:06;18.10;99.90
21244;DHT22;10780;50.942;4.028;2022-08-19T03:57:33;18.10;99.90
21244;DHT22;10780;50.942;4.028;2022-08-19T04:00:00;18.10;99.90
21244;DHT22;10780;50.942;4.028;2022-08-19T04:02:26;18.10;99.90
21244;DHT22;10780;50.942;4.028;2022-08-19T04:04:53;18.10;99.90
21244;DHT22;10780;50.942;4.028;2022-08-19T04:07:19;18.20;99.90
21244;DHT22;10780;50.942;4.028;2022-08-19T04:09:47;18.10;99.90
21244;DHT22;10780;50.942;4.028;2022-08-19T04:12:13;18.20;99.90
21244;DHT22;10780;50.942;4.028;2022-08-19T04:14:40;18.20;99.90
21244;DHT22;10780;50.942;4.028;2022-08-19T04:17:06;18.20;99.90
21244;DHT22;10780;50.942;4.028;2022-08-19T04:19:34;18.20;99.90
21244;DHT22;10780;50.942;4.028;2022-08-19T04:22:00;18.20;99.90
21244;DHT22;10780;50.942;4.028;2022-08-19T04:24:25;18.10;99.90
21244;DHT22;10780;50.942;4.028;2022-08-19T04:26:51;18.10;99.90
21244;DHT22;10780;50.942;4.028;2022-08-19T04:29:20;18.10;99.90
21244;DHT22;10780;50.942;4.028;2022-08-19T04:31:48;18.10;99.90
21244;DHT22;10780;50.942;4.028;2022-08-19T04:34:16;18.10;99.90
21244;DHT22;10780;50.942;4.028;2022-08-19T04:36:43;18.10;99.90
21244;DHT22;10780;50.942;4.028;2022-08-19T04:39:15;18.10;99.90
21244;DHT22;10780;50.942;4.028;2022-08-19T04:41:41;18.10;99.90
21244;DHT22;10780;50.942;4.028;2022-08-19T04:44:26;18.10;99.90
21244;DHT22;10780;50.942;4.028;2022-08-19T04:46:52;18.10;99.90
21244;DHT22;10780;50.942;4.028;2022-08-19T04:49:20;18.00;99.90
21244;DHT22;10780;50.942;4.028;2022-08-19T04:51:47;18.00;99.90
21244;DHT22;10780;50.942;4.028;2022-08-19T04:54:17;18.00;99.90
21244;DHT22;10780;50.942;4.028;2022-08-19T04:56:43;18.00;99.90
21244;DHT22;10780;50.942;4.028;2022-08-19T04:59:09;18.00;99.90
21244;DHT22;10780;50.942;4.028;2022-08-19T05:01:35;18.00;99.90
21244;DHT22;10780;50.942;4.028;2022-08-19T05:04:03;18.20;99.90
21244;DHT22;10780;50.942;4.028;2022-08-19T05:06:30;18.10;99.90
21244;DHT22;10780;50.942;4.028;2022-08-19T05:09:03;18.10;99.90
21244;DHT22;10780;50.942;4.028;2022-08-19T05:11:33;18.20;99.90
21244;DHT22;10780;50.942;4.028;2022-08-19T05:13:59;18.20;99.90
21244;DHT22;10780;50.942;4.028;2022-08-19T05:16:26;18.20;99.90
21244;DHT22;10780;50.942;4.028;2022-08-19T05:18:52;18.30;99.90
21244;DHT22;10780;50.942;4.028;2022-08-19T05:21:36;18.30;99.90
21244;DHT22;10780;50.942;4.028;2022-08-19T05:24:21;18.30;99.90
21244;DHT22;10780;50.942;4.028;2022-08-19T05:26:49;18.40;99.90
21244;DHT22;10780;50.942;4.028;2022-08-19T05:29:17;18.50;99.90
21244;DHT22;10780;50.942;4.028;2022-08-19T05:31:44;18.60;99.90
21244;DHT22;10780;50.942;4.028;2022-08-19T05:34:10;18.80;99.90
21244;DHT22;10780;50.942;4.028;2022-08-19T05:36:40;18.80;99.90
21244;DHT22;10780;50.942;4.028;2022-08-19T05:39:11;19.00;99.90
21244;DHT22;10780;50.942;4.028;2022-08-19T05:41:44;19.00;99.90
21244;DHT22;10780;50.942;4.028;2022-08-19T05:44:11;19.10;99.90
21244;DHT22;10780;50.942;4.028;2022-08-19T05:46:38;19.00;99.90
21244;DHT22;10780;50.942;4.028;2022-08-19T05:49:07;19.00;99.90
21244;DHT22;10780;50.942;4.028;2022-08-19T05:51:34;19.10;99.90
21244;DHT22;10780;50.942;4.028;2022-08-19T05:54:04;19.30;99.90
21244;DHT22;10780;50.942;4.028;2022-08-19T05:56:31;19.40;99.90
21244;DHT22;10780;50.942;4.028;2022-08-19T05:58:57;19.30;99.90
21244;DHT22;10780;50.942;4.028;2022-08-19T06:01:24;19.40;99.90
21244;DHT22;10780;50.942;4.028;2022-08-19T06:03:50;19.50;99.90
21244;DHT22;10780;50.942;4.028;2022-08-19T06:06:16;19.60;99.90
21244;DHT22;10780;50.942;4.028;2022-08-19T06:08:41;19.80;99.90
21244;DHT22;10780;50.942;4.028;2022-08-19T06:11:21;20.00;99.90
21244;DHT22;10780;50.942;4.028;2022-08-19T06:13:50;20.00;99.90
21244;DHT22;10780;50.942;4.028;2022-08-19T06:16:18;20.00;99.90
21244;DHT22;10780;50.942;4.028;2022-08-19T06:18:46;20.00;99.90
21244;DHT22;10780;50.942;4.028;2022-08-19T06:21:12;20.00;99.90
21244;DHT22;10780;50.942;4.028;2022-08-19T06:23:38;20.30;99.90
21244;DHT22;10780;50.942;4.028;2022-08-19T06:26:04;20.60;99.90
21244;DHT22;10780;50.942;4.028;2022-08-19T06:28:30;20.90;99.90
21244;DHT22;10780;50.942;4.028;2022-08-19T06:30:56;21.20;99.90
21244;DHT22;10780;50.942;4.028;2022-08-19T06:33:21;21.40;99.90
21244;DHT22;10780;50.942;4.028;2022-08-19T06:35:47;21.60;99.90
21244;DHT22;10780;50.942;4.028;2022-08-19T06:38:12;21.40;99.90
21244;DHT22;10780;50.942;4.028;2022-08-19T06:40:38;21.30;99.90
21244;DHT22;10780;50.942;4.028;2022-08-19T06:43:04;21.50;99.90
21244;DHT22;10780;50.942;4.028;2022-08-19T06:45:29;21.60;99.90
21244;DHT22;10780;50.942;4.028;2022-08-19T06:47:56;21.80;99.90
21244;DHT22;10780;50.942;4.028;2022-08-19T06:50:23;22.00;99.90
21244;DHT22;10780;50.942;4.028;2022-08-19T06:52:48;22.10;99.90
21244;DHT22;10780;50.942;4.028;2022-08-19T06:55:14;22.00;99.90
21244;DHT22;10780;50.942;4.028;2022-08-19T06:57:41;22.10;99.90
21244;DHT22;10780;50.942;4.028;2022-08-19T07:00:08;22.40;99.90
21244;DHT22;10780;50.942;4.028;2022-08-19T07:02:40;22.50;99.90
21244;DHT22;10780;50.942;4.028;2022-08-19T07:05:06;22.70;99.90
21244;DHT22;10780;50.942;4.028;2022-08-19T07:07:32;23.10;99.90
21244;DHT22;10780;50.942;4.028;2022-08-19T07:09:58;23.30;99.90
21244;DHT22;10780;50.942;4.028;2022-08-19T07:12:24;23.60;99.90
21244;DHT22;10780;50.942;4.028;2022-08-19T07:14:49;23.80;99.90
21244;DHT22;10780;50.942;4.028;2022-08-19T07:17:15;23.60;99.90
21244;DHT22;10780;50.942;4.028;2022-08-19T07:19:41;23.40;99.90
21244;DHT22;10780;50.942;4.028;2022-08-19T07:22:09;23.50;99.90
21244;DHT22;10780;50.942;4.028;2022-08-19T07:24:36;23.50;99.90
21244;DHT22;10780;50.942;4.028;2022-08-19T07:27:04;23.50;99.90
21244;DHT22;10780;50.942;4.028;2022-08-19T07:29:32;23.50;99.90
21244;DHT22;10780;50.942;4.028;2022-08-19T07:31:59;23.60;99.90
21244;DHT22;10780;50.942;4.028;2022-08-19T07:34:27;23.50;99.90
21244;DHT22;10780;50.942;4.028;2022-08-19T07:36:54;23.40;99.90
21244;DHT22;10780;50.942;4.028;2022-08-19T07:39:24;23.20;99.90
21244;DHT22;10780;50.942;4.028;2022-08-19T07:41:50;22.90;99.90
21244;DHT22;10780;50.942;4.028;2022-08-19T07:44:17;22.90;99.90
21244;DHT22;10780;50.942;4.028;2022-08-19T07:46:46;23.00;99.90
21244;DHT22;10780;50.942;4.028;2022-08-19T07:49:14;23.20;99.90
21244;DHT22;10780;50.942;4.028;2022-08-19T07:51:46;23.20;99.90
21244;DHT22;10780;50.942;4.028;2022-08-19T07:54:12;23.30;99.90
21244;DHT22;10780;50.942;4.028;2022-08-19T07:56:38;23.10;99.90
21244;DHT22;10780;50.942;4.028;2022-08-19T07:59:03;23.20;99.90
21244;DHT22;10780;50.942;4.028;2022-08-19T08:01:30;23.10;99.90
21244;DHT22;10780;50.942;4.028;2022-08-19T08:03:57;23.10;99.90
21244;DHT22;10780;50.942;4.028;2022-08-19T08:06:41;23.10;99.90
21244;DHT22;10780;50.942;4.028;2022-08-19T08:09:30;23.10;99.90
21244;DHT22;10780;50.942;4.028;2022-08-19T08:12:21;23.40;99.90
21244;DHT22;10780;50.942;4.028;2022-08-19T08:14:52;23.50;99.90
21244;DHT22;10780;50.942;4.028;2022-08-19T08:17:20;23.50;99.90
21244;DHT22;10780;50.942;4.028;2022-08-19T08:19:46;23.50;99.90
21244;DHT22;10780;50.942;4.028;2022-08-19T08:22:15;23.50;99.90
21244;DHT22;10780;50.942;4.028;2022-08-19T08:25:15;23.30;99.90
21244;DHT22;10780;50.942;4.028;2022-08-19T08:27:44;23.00;99.90
21244;DHT22;10780;50.942;4.028;2022-08-19T08:30:13;23.00;99.90
21244;DHT22;10780;50.942;4.028;2022-08-19T08:32:40;23.00;99.90
21244;DHT22;10780;50.942;4.028;2022-08-19T08:35:09;23.00;99.90
21244;DHT22;10780;50.942;4.028;2022-08-19T08:37:35;23.10;99.90
21244;DHT22;10780;50.942;4.028;2022-08-19T08:40:05;23.40;99.90
21244;DHT22;10780;50.942;4.028;2022-08-19T08:42:34;23.70;99.90
21244;DHT22;10780;50.942;4.028;2022-08-19T08:45:13;23.60;99.90
21244;DHT22;10780;50.942;4.028;2022-08-19T08:47:44;23.70;99.90
21244;DHT22;10780;50.942;4.028;2022-08-19T08:50:18;23.70;99.90
21244;DHT22;10780;50.942;4.028;2022-08-19T08:52:47;23.90;99.90
21244;DHT22;10780;50.942;4.028;2022-08-19T08:55:16;24.00;99.90
21244;DHT22;10780;50.942;4.028;2022-08-19T09:00:20;23.50;99.90
21244;DHT22;10780;50.942;4.028;2022-08-19T09:02:46;23.60;99.90
21244;DHT22;10780;50.942;4.028;2022-08-19T09:05:13;23.60;99.90
21244;DHT22;10780;50.942;4.028;2022-08-19T09:07:46;23.70;99.90
21244;DHT22;10780;50.942;4.028;2022-08-19T09:12:57;23.80;99.90
21244;DHT22;10780;50.942;4.028;2022-08-19T09:15:36;24.00;99.90
21244;DHT22;10780;50.942;4.028;2022-08-19T09:18:04;24.30;99.90
21244;DHT22;10780;50.942;4.028;2022-08-19T09:20:31;23.90;99.90
21244;DHT22;10780;50.942;4.028;2022-08-19T09:22:57;24.00;99.90
21244;DHT22;10780;50.942;4.028;2022-08-19T09:25:24;24.00;99.90
21244;DHT22;10780;50.942;4.028;2022-08-19T09:27:51;23.90;99.90
21244;DHT22;10780;50.942;4.028;2022-08-19T09:30:24;23.90;99.90
21244;DHT22;10780;50.942;4.028;2022-08-19T09:32:51;23.70;99.90
21244;DHT22;10780;50.942;4.028;2022-08-19T09:35:25;23.50;99.90
21244;DHT22;10780;50.942;4.028;2022-08-19T09:37:52;23.50;99.90
21244;DHT22;10780;50.942;4.028;2022-08-19T09:40:18;23.60;99.90
21244;DHT22;10780;50.942;4.028;2022-08-19T09:42:45;23.70;99.90
21244;DHT22;10780;50.942;4.028;2022-08-19T09:45:16;23.70;99.90
21244;DHT22;10780;50.942;4.028;2022-08-19T09:47:42;23.50;99.90
21244;DHT22;10780;50.942;4.028;2022-08-19T09:50:10;23.40;99.90
21244;DHT22;10780;50.942;4.028;2022-08-19T09:52:37;23.20;99.90
21244;DHT22;10780;50.942;4.028;2022-08-19T09:55:07;23.20;99.90
21244;DHT22;10780;50.942;4.028;2022-08-19T09:57:33;23.20;99.90
21244;DHT22;10780;50.942;4.028;2022-08-19T09:59:59;23.10;99.90
21244;DHT22;10780;50.942;4.028;2022-08-19T10:02:25;23.20;99.90
21244;DHT22;10780;50.942;4.028;2022-08-19T10:04:51;23.40;99.90
21244;DHT22;10780;50.942;4.028;2022-08-19T10:07:36;23.50;99.90
21244;DHT22;10780;50.942;4.028;2022-08-19T10:10:06;24.40;99.90
21244;DHT22;10780;50.942;4.028;2022-08-19T10:12:33;24.90;99.90
21244;DHT22;10780;50.942;4.028;2022-08-19T10:14:59;25.20;99.90
21244;DHT22;10780;50.942;4.028;2022-08-19T10:17:25;25.30;99.90
21244;DHT22;10780;50.942;4.028;2022-08-19T10:19:51;25.00;99.90
21244;DHT22;10780;50.942;4.028;2022-08-19T10:22:18;24.70;99.90
21244;DHT22;10780;50.942;4.028;2022-08-19T10:24:46;24.70;99.90
21244;DHT22;10780;50.942;4.028;2022-08-19T10:27:11;25.00;99.90
21244;DHT22;10780;50.942;4.028;2022-08-19T10:29:39;24.90;99.90
21244;DHT22;10780;50.942;4.028;2022-08-19T10:32:06;25.60;99.90
21244;DHT22;10780;50.942;4.028;2022-08-19T10:34:34;25.80;99.90
21244;DHT22;10780;50.942;4.028;2022-08-19T10:37:00;26.00;99.90
21244;DHT22;10780;50.942;4.028;2022-08-19T10:39:26;26.20;99.90
21244;DHT22;10780;50.942;4.028;2022-08-19T10:41:54;26.20;99.90
21244;DHT22;10780;50.942;4.028;2022-08-19T10:44:21;26.10;99.90
21244;DHT22;10780;50.942;4.028;2022-08-19T10:46:48;26.10;99.90
21244;DHT22;10780;50.942;4.028;2022-08-19T10:49:14;25.90;99.90
21244;DHT22;10780;50.942;4.028;2022-08-19T10:51:41;25.90;99.90
21244;DHT22;10780;50.942;4.028;2022-08-19T10:54:26;26.00;99.90
21244;DHT22;10780;50.942;4.028;2022-08-19T10:57:12;25.90;99.90
21244;DHT22;10780;50.942;4.028;2022-08-19T10:59:38;26.20;99.90
21244;DHT22;10780;50.942;4.028;2022-08-19T11:02:07;26.60;99.90
21244;DHT22;10780;50.942;4.028;2022-08-19T11:04:35;27.20;99.90
21244;DHT22;10780;50.942;4.028;2022-08-19T11:07:02;27.30;99.90
21244;DHT22;10780;50.942;4.028;2022-08-19T11:09:28;27.60;99.90
21244;DHT22;10780;50.942;4.028;2022-08-19T11:11:54;28.50;99.90
21244;DHT22;10780;50.942;4.028;2022-08-19T11:14:22;29.00;99.90
21244;DHT22;10780;50.942;4.028;2022-08-19T11:16:49;29.40;99.90
21244;DHT22;10780;50.942;4.028;2022-08-19T11:19:16;29.60;99.90
21244;DHT22;10780;50.942;4.028;2022-08-19T11:21:46;29.50;99.90
21244;DHT22;10780;50.942;4.028;2022-08-19T11:24:19;29.50;99.90
21244;DHT22;10780;50.942;4.028;2022-08-19T11:26:47;28.30;99.90
21244;DHT22;10780;50.942;4.028;2022-08-19T11:29:15;28.10;99.90
21244;DHT22;10780;50.942;4.028;2022-08-19T11:31:43;27.70;99.90
21244;DHT22;10780;50.942;4.028;2022-08-19T11:34:13;27.30;99.90
21244;DHT22;10780;50.942;4.028;2022-08-19T11:36:41;27.40;99.90
21244;DHT22;10780;50.942;4.028;2022-08-19T11:39:09;27.40;99.90
21244;DHT22;10780;50.942;4.028;2022-08-19T11:41:34;27.20;99.90
21244;DHT22;10780;50.942;4.028;2022-08-19T11:44:00;27.20;99.90
21244;DHT22;10780;50.942;4.028;2022-08-19T11:46:28;27.20;99.90
21244;DHT22;10780;50.942;4.028;2022-08-19T11:48:58;27.20;99.90
21244;DHT22;10780;50.942;4.028;2022-08-19T11:51:25;27.30;99.90
21244;DHT22;10780;50.942;4.028;2022-08-19T11:53:52;27.40;99.90
21244;DHT22;10780;50.942;4.028;2022-08-19T11:56:19;27.50;99.90
21244;DHT22;10780;50.942;4.028;2022-08-19T11:58:45;27.70;99.90
21244;DHT22;10780;50.942;4.028;2022-08-19T12:01:13;28.10;99.90
21244;DHT22;10780;50.942;4.028;2022-08-19T12:03:41;28.40;99.90
21244;DHT22;10780;50.942;4.028;2022-08-19T12:06:10;28.70;99.90
21244;DHT22;10780;50.942;4.028;2022-08-19T12:08:39;28.90;99.90
21244;DHT22;10780;50.942;4.028;2022-08-19T12:11:05;29.00;99.90
21244;DHT22;10780;50.942;4.028;2022-08-19T12:13:33;29.00;99.90
21244;DHT22;10780;50.942;4.028;2022-08-19T12:16:00;29.20;99.90
21244;DHT22;10780;50.942;4.028;2022-08-19T12:18:26;29.00;99.90
21244;DHT22;10780;50.942;4.028;2022-08-19T12:20:53;28.80;99.90
21244;DHT22;10780;50.942;4.028;2022-08-19T12:23:20;28.50;99.90
21244;DHT22;10780;50.942;4.028;2022-08-19T12:25:47;28.60;99.90
21244;DHT22;10780;50.942;4.028;2022-08-19T12:28:20;29.40;99.90
21244;DHT22;10780;50.942;4.028;2022-08-19T12:30:47;29.60;99.90
21244;DHT22;10780;50.942;4.028;2022-08-19T12:33:13;29.10;99.90
21244;DHT22;10780;50.942;4.028;2022-08-19T12:35:43;28.40;99.90
21244;DHT22;10780;50.942;4.028;2022-08-19T12:38:10;28.50;99.90
21244;DHT22;10780;50.942;4.028;2022-08-19T12:40:36;28.80;99.90
21244;DHT22;10780;50.942;4.028;2022-08-19T12:43:02;29.10;99.90
21244;DHT22;10780;50.942;4.028;2022-08-19T12:45:28;29.10;99.90
21244;DHT22;10780;50.942;4.028;2022-08-19T12:47:55;29.00;99.90
21244;DHT22;10780;50.942;4.028;2022-08-19T12:50:20;29.00;99.90
21244;DHT22;10780;50.942;4.028;2022-08-19T12:52:47;28.70;99.90
21244;DHT22;10780;50.942;4.028;2022-08-19T12:55:13;27.70;99.90
21244;DHT22;10780;50.942;4.028;2022-08-19T12:57:39;27.40;99.90
21244;DHT22;10780;50.942;4.028;2022-08-19T13:00:17;27.20;99.90
21244;DHT22;10780;50.942;4.028;2022-08-19T13:02:45;27.60;99.90
21244;DHT22;10780;50.942;4.028;2022-08-19T13:05:13;27.20;99.90
21244;DHT22;10780;50.942;4.028;2022-08-19T13:07:40;27.20;99.90
21244;DHT22;10780;50.942;4.028;2022-08-19T13:10:07;27.30;99.90
21244;DHT22;10780;50.942;4.028;2022-08-19T13:12:33;27.80;99.90
21244;DHT22;10780;50.942;4.028;2022-08-19T13:14:59;28.20;99.90
21244;DHT22;10780;50.942;4.028;2022-08-19T13:17:25;29.00;99.90
21244;DHT22;10780;50.942;4.028;2022-08-19T13:19:50;28.80;99.90
21244;DHT22;10780;50.942;4.028;2022-08-19T13:22:16;28.50;99.90
21244;DHT22;10780;50.942;4.028;2022-08-19T13:24:42;28.90;99.90
21244;DHT22;10780;50.942;4.028;2022-08-19T13:27:08;29.00;99.90
21244;DHT22;10780;50.942;4.028;2022-08-19T13:29:33;28.40;99.90
21244;DHT22;10780;50.942;4.028;2022-08-19T13:32:17;28.30;99.90
21244;DHT22;10780;50.942;4.028;2022-08-19T13:35:03;28.50;99.90
21244;DHT22;10780;50.942;4.028;2022-08-19T13:37:28;28.30;99.90
21244;DHT22;10780;50.942;4.028;2022-08-19T13:40:22;28.70;99.90
21244;DHT22;10780;50.942;4.028;2022-08-19T13:42:50;28.10;99.90
21244;DHT22;10780;50.942;4.028;2022-08-19T13:45:20;28.10;99.90
21244;DHT22;10780;50.942;4.028;2022-08-19T13:47:48;27.60;99.90
21244;DHT22;10780;50.942;4.028;2022-08-19T13:50:17;27.40;99.90
21244;DHT22;10780;50.942;4.028;2022-08-19T13:52:43;26.70;99.90
21244;DHT22;10780;50.942;4.028;2022-08-19T13:55:11;26.40;99.90
21244;DHT22;10780;50.942;4.028;2022-08-19T13:57:37;26.20;99.90
21244;DHT22;10780;50.942;4.028;2022-08-19T14:00:09;26.20;99.90
21244;DHT22;10780;50.942;4.028;2022-08-19T14:02:36;26.00;99.90
21244;DHT22;10780;50.942;4.028;2022-08-19T14:05:04;25.70;99.90
21244;DHT22;10780;50.942;4.028;2022-08-19T14:07:30;25.50;99.90
21244;DHT22;10780;50.942;4.028;2022-08-19T14:09:56;25.70;99.90
21244;DHT22;10780;50.942;4.028;2022-08-19T14:12:22;26.20;99.90
21244;DHT22;10780;50.942;4.028;2022-08-19T14:14:48;26.10;99.90
21244;DHT22;10780;50.942;4.028;2022-08-19T14:17:14;26.80;99.90
21244;DHT22;10780;50.942;4.028;2022-08-19T14:19:41;27.30;99.90
21244;DHT22;10780;50.942;4.028;2022-08-19T14:22:07;27.80;99.90
21244;DHT22;10780;50.942;4.028;2022-08-19T14:24:32;27.40;99.90
21244;DHT22;10780;50.942;4.028;2022-08-19T14:26:59;27.30;99.90
21244;DHT22;10780;50.942;4.028;2022-08-19T14:29:25;27.80;99.90
21244;DHT22;10780;50.942;4.028;2022-08-19T14:31:51;27.90;99.90
21244;DHT22;10780;50.942;4.028;2022-08-19T14:34:16;27.90;99.90
21244;DHT22;10780;50.942;4.028;2022-08-19T14:36:42;27.90;99.90
21244;DHT22;10780;50.942;4.028;2022-08-19T14:39:08;28.20;99.90
21244;DHT22;10780;50.942;4.028;2022-08-19T14:41:35;28.50;99.90
21244;DHT22;10780;50.942;4.028;2022-08-19T14:44:01;28.40;99.90
21244;DHT22;10780;50.942;4.028;2022-08-19T14:46:28;27.40;99.90
21244;DHT22;10780;50.942;4.028;2022-08-19T14:48:54;27.10;99.90
21244;DHT22;10780;50.942;4.028;2022-08-19T14:51:22;27.10;99.90
21244;DHT22;10780;50.942;4.028;2022-08-19T14:53:48;27.00;99.90
21244;DHT22;10780;50.942;4.028;2022-08-19T14:56:17;27.10;99.90
21244;DHT22;10780;50.942;4.028;2022-08-19T14:58:44;26.90;99.90
21244;DHT22;10780;50.942;4.028;2022-08-19T15:01:11;26.80;99.90
21244;DHT22;10780;50.942;4.028;2022-08-19T15:03:38;26.90;99.90
21244;DHT22;10780;50.942;4.028;2022-08-19T15:06:05;27.30;99.90
21244;DHT22;10780;50.942;4.028;2022-08-19T15:08:32;27.80;99.90
21244;DHT22;10780;50.942;4.028;2022-08-19T15:11:00;28.10;99.90
21244;DHT22;10780;50.942;4.028;2022-08-19T15:13:28;28.50;99.90
21244;DHT22;10780;50.942;4.028;2022-08-19T15:15:54;29.10;99.90
21244;DHT22;10780;50.942;4.028;2022-08-19T15:18:21;30.30;99.90
21244;DHT22;10780;50.942;4.028;2022-08-19T15:20:48;30.80;99.90
21244;DHT22;10780;50.942;4.028;2022-08-19T15:23:15;29.60;99.90
21244;DHT22;10780;50.942;4.028;2022-08-19T15:25:41;29.60;99.90
21244;DHT22;10780;50.942;4.028;2022-08-19T15:28:08;30.10;99.90
21244;DHT22;10780;50.942;4.028;2022-08-19T15:30:38;29.80;99.90
21244;DHT22;10780;50.942;4.028;2022-08-19T15:33:04;29.40;99.90
21244;DHT22;10780;50.942;4.028;2022-08-19T15:35:30;29.20;99.90
21244;DHT22;10780;50.942;4.028;2022-08-19T15:37:56;29.00;99.90
21244;DHT22;10780;50.942;4.028;2022-08-19T15:40:24;28.40;99.90
21244;DHT22;10780;50.942;4.028;2022-08-19T15:42:50;28.10;99.90